Terminal Aerodrome Forecast
Issued by NWS

Home | Current Version | Previous Version | Text Only | Print | Product List | Glossary On
Versions: 1 2 3 4 5 6 7 8 9 10 11 12 13 14 15 16
422
FTUS44 KTSA 201159 AAA
TAFFYV
TAF AMD
KFYV 201159Z 2012/2112 18008KT P6SM SCT020 SCT250
      TEMPO 2012/2014 BKN020
     FM201500 20012G20KT P6SM FEW050
     FM210000 17005KT P6SM SKC=

USA.gov is the U.S. government's official web portal to all federal, state and local government web resources and services.